Silver Cloud — C6MQ5 — position and weather

sailwx.info

Track history (hours):
 
Tides and Currents Weather Stations Pressure Air Temp Water Temp Dewpoint Dewpoint Depression Visibility Wind Speed Wind Dir Waves Ship Positions

Silver Cloud

Operator: V Ships Leisure SAM

Last reported at 2017-Jan-21 15:33 UTC. Time now 2017-Jan-21 15:35 UTC.
Position S 29°44' E 031°28'.

Length 156 m; draft 5.7 m.

Type: Passenger vessel. MMSI: 309027000.

Date/timePositionNaut miles runAvg speedWind from/ knotsBaromVisibWave heightAir tempDewpointWater temp
2017-Jan-21 15:33S 29°44' E 031°28'1716.8
2017-Jan-21 14:33S 29°59' E 031°20'1716.6
2017-Jan-21 13:34S 30°13' E 031°08'1716.8
2017-Jan-21 12:33S 30°25' E 030°55'  
2017-Jan-18 21:33S 33°52' E 018°20'5 5.4
2017-Jan-18 20:32S 33°55' E 018°26'0 0.0
2017-Jan-18 19:23S 33°55' E 018°26'0 0.0
2017-Jan-18 18:23S 33°55' E 018°26'0 0.0
2017-Jan-18 17:29S 33°55' E 018°26'0 0.0
2017-Jan-18 16:32S 33°55' E 018°26'0 0.0
2017-Jan-18 15:32S 33°55' E 018°26'0 0.0
2017-Jan-18 14:29S 33°55' E 018°26'0 0.0
2017-Jan-18 13:14S 33°55' E 018°26'0 0.0
2017-Jan-18 12:26S 33°55' E 018°26'0 0.0
2017-Jan-18 11:29S 33°55' E 018°26'0 0.0
2017-Jan-18 10:29S 33°55' E 018°26'0 0.0
2017-Jan-18 09:29S 33°55' E 018°26'0 0.0
2017-Jan-18 08:23S 33°55' E 018°26'0 0.0
2017-Jan-18 07:32S 33°55' E 018°26'0 0.0
2017-Jan-18 06:29S 33°55' E 018°26'0 0.0
2017-Jan-18 05:29S 33°55' E 018°26'0 0.0
2017-Jan-18 04:23S 33°55' E 018°26'0 0.0
2017-Jan-18 03:29S 33°55' E 018°26'0 0.0
2017-Jan-18 02:29S 33°55' E 018°26'0 0.0
2017-Jan-18 01:29S 33°55' E 018°26'0 0.0
2017-Jan-18 00:32S 33°55' E 018°26'0 0.0
2017-Jan-17 23:29S 33°55' E 018°26'0 0.0
2017-Jan-17 22:32S 33°55' E 018°26'0 0.0
2017-Jan-17 21:32S 33°55' E 018°26'0 0.0
2017-Jan-17 20:29S 33°55' E 018°26'0 0.0
2017-Jan-17 19:29S 33°55' E 018°26'0 0.0
2017-Jan-17 18:23S 33°55' E 018°26'0 0.0
2017-Jan-17 17:32S 33°55' E 018°26'0 0.0
2017-Jan-17 16:32S 33°55' E 018°26'0 0.0
2017-Jan-17 15:30S 33°55' E 018°26'0 0.0
2017-Jan-17 14:32S 33°55' E 018°26'0 0.0
2017-Jan-17 13:33S 33°55' E 018°26'0 0.0
2017-Jan-17 12:32S 33°55' E 018°26'0 0.0
2017-Jan-17 11:33S 33°55' E 018°26'0 0.0
2017-Jan-17 10:32S 33°55' E 018°26'0 0.0
2017-Jan-17 09:33S 33°55' E 018°26'0 0.0
2017-Jan-17 08:32S 33°55' E 018°26'0 0.0
2017-Jan-17 07:32S 33°55' E 018°26'0 0.0
2017-Jan-17 06:32S 33°55' E 018°26'2 2.3
2017-Jan-17 05:34S 33°52' E 018°25'  
2017-Jan-15 00:17S 30°26' E 030°59'1317.7
2017-Jan-14 23:33S 30°16' E 031°07'1817.6
2017-Jan-14 22:33S 30°01' E 031°19'1616.0
2017-Jan-14 21:33S 29°48' E 031°29'1616.5
2017-Jan-14 20:33S 29°34' E 031°40'1616.4
2017-Jan-14 19:33S 29°20' E 031°50'15 0.4
2017-Jan-13 00:30S 29°28' E 031°35'1111.3
2017-Jan-12 23:32S 29°36' E 031°26'1111.1
2017-Jan-12 22:34S 29°43' E 031°17'1111.2
2017-Jan-12 21:33S 29°50' E 031°07'5 4.6
2017-Jan-12 20:33S 29°52' E 031°02'0 0.0
2017-Jan-12 19:33S 29°52' E 031°02'0 0.0
2017-Jan-12 18:33S 29°52' E 031°02'0 0.0
2017-Jan-12 17:33S 29°52' E 031°02'0 0.0
2017-Jan-12 16:33S 29°52' E 031°02'0 0.0
2017-Jan-12 15:33S 29°52' E 031°02'0 0.0
2017-Jan-12 14:33S 29°52' E 031°02'0 0.0
2017-Jan-12 13:33S 29°52' E 031°02'0 0.0
2017-Jan-12 12:33S 29°52' E 031°02'0 0.0
2017-Jan-12 11:33S 29°52' E 031°02'0 0.0
2017-Jan-12 10:33S 29°52' E 031°02'0 0.0
2017-Jan-12 09:33S 29°52' E 031°02'0 0.0
2017-Jan-12 08:33S 29°52' E 031°02'0 0.0
2017-Jan-12 07:33S 29°52' E 031°02'1 0.5
2017-Jan-12 06:34S 29°53' E 031°03'5 5.4
2017-Jan-12 05:33S 29°56' E 031°08'1413.7
2017-Jan-12 04:33S 30°07' E 030°60'  
Track history (hours):
 
Tides and Currents Weather Stations Pressure Air Temp Water Temp Dewpoint Dewpoint Depression Visibility Wind Speed Wind Dir Waves Ship Positions

Silver Cloud

Operator: V Ships Leisure SAM

Last reported at 2017-Jan-21 15:33 UTC. Time now 2017-Jan-21 15:35 UTC.
Position S 29°44' E 031°28'.

Length 156 m; draft 5.7 m.

Type: Passenger vessel. MMSI: 309027000.

Date/timePositionNaut miles runAvg speedWind from/ knotsBaromVisibWave heightAir tempDewpointWater temp
2017-Jan-21 15:33S 29°44' E 031°28'1716.8
2017-Jan-21 14:33S 29°59' E 031°20'1716.6
2017-Jan-21 13:34S 30°13' E 031°08'1716.8
2017-Jan-21 12:33S 30°25' E 030°55'  
2017-Jan-18 21:33S 33°52' E 018°20'5 5.4
2017-Jan-18 20:32S 33°55' E 018°26'0 0.0
2017-Jan-18 19:23S 33°55' E 018°26'0 0.0
2017-Jan-18 18:23S 33°55' E 018°26'0 0.0
2017-Jan-18 17:29S 33°55' E 018°26'0 0.0
2017-Jan-18 16:32S 33°55' E 018°26'0 0.0
2017-Jan-18 15:32S 33°55' E 018°26'0 0.0
2017-Jan-18 14:29S 33°55' E 018°26'0 0.0
2017-Jan-18 13:14S 33°55' E 018°26'0 0.0
2017-Jan-18 12:26S 33°55' E 018°26'0 0.0
2017-Jan-18 11:29S 33°55' E 018°26'0 0.0
2017-Jan-18 10:29S 33°55' E 018°26'0 0.0
2017-Jan-18 09:29S 33°55' E 018°26'0 0.0
2017-Jan-18 08:23S 33°55' E 018°26'0 0.0
2017-Jan-18 07:32S 33°55' E 018°26'0 0.0
2017-Jan-18 06:29S 33°55' E 018°26'0 0.0
2017-Jan-18 05:29S 33°55' E 018°26'0 0.0
2017-Jan-18 04:23S 33°55' E 018°26'0 0.0
2017-Jan-18 03:29S 33°55' E 018°26'0 0.0
2017-Jan-18 02:29S 33°55' E 018°26'0 0.0
2017-Jan-18 01:29S 33°55' E 018°26'0 0.0
2017-Jan-18 00:32S 33°55' E 018°26'0 0.0
2017-Jan-17 23:29S 33°55' E 018°26'0 0.0
2017-Jan-17 22:32S 33°55' E 018°26'0 0.0
2017-Jan-17 21:32S 33°55' E 018°26'0 0.0
2017-Jan-17 20:29S 33°55' E 018°26'0 0.0
2017-Jan-17 19:29S 33°55' E 018°26'0 0.0
2017-Jan-17 18:23S 33°55' E 018°26'0 0.0
2017-Jan-17 17:32S 33°55' E 018°26'0 0.0
2017-Jan-17 16:32S 33°55' E 018°26'0 0.0
2017-Jan-17 15:30S 33°55' E 018°26'0 0.0
2017-Jan-17 14:32S 33°55' E 018°26'0 0.0
2017-Jan-17 13:33S 33°55' E 018°26'0 0.0
2017-Jan-17 12:32S 33°55' E 018°26'0 0.0
2017-Jan-17 11:33S 33°55' E 018°26'0 0.0
2017-Jan-17 10:32S 33°55' E 018°26'0 0.0
2017-Jan-17 09:33S 33°55' E 018°26'0 0.0
2017-Jan-17 08:32S 33°55' E 018°26'0 0.0
2017-Jan-17 07:32S 33°55' E 018°26'0 0.0
2017-Jan-17 06:32S 33°55' E 018°26'2 2.3
2017-Jan-17 05:34S 33°52' E 018°25'  
2017-Jan-15 00:17S 30°26' E 030°59'1317.7
2017-Jan-14 23:33S 30°16' E 031°07'1817.6
2017-Jan-14 22:33S 30°01' E 031°19'1616.0
2017-Jan-14 21:33S 29°48' E 031°29'1616.5
2017-Jan-14 20:33S 29°34' E 031°40'1616.4
2017-Jan-14 19:33S 29°20' E 031°50'15 0.4
2017-Jan-13 00:30S 29°28' E 031°35'1111.3
2017-Jan-12 23:32S 29°36' E 031°26'1111.1
2017-Jan-12 22:34S 29°43' E 031°17'1111.2
2017-Jan-12 21:33S 29°50' E 031°07'5 4.6
2017-Jan-12 20:33S 29°52' E 031°02'0 0.0
2017-Jan-12 19:33S 29°52' E 031°02'0 0.0
2017-Jan-12 18:33S 29°52' E 031°02'0 0.0
2017-Jan-12 17:33S 29°52' E 031°02'0 0.0
2017-Jan-12 16:33S 29°52' E 031°02'0 0.0
2017-Jan-12 15:33S 29°52' E 031°02'0 0.0
2017-Jan-12 14:33S 29°52' E 031°02'0 0.0
2017-Jan-12 13:33S 29°52' E 031°02'0 0.0
2017-Jan-12 12:33S 29°52' E 031°02'0 0.0
2017-Jan-12 11:33S 29°52' E 031°02'0 0.0
2017-Jan-12 10:33S 29°52' E 031°02'0 0.0
2017-Jan-12 09:33S 29°52' E 031°02'0 0.0
2017-Jan-12 08:33S 29°52' E 031°02'0 0.0
2017-Jan-12 07:33S 29°52' E 031°02'1 0.5
2017-Jan-12 06:34S 29°53' E 031°03'5 5.4
2017-Jan-12 05:33S 29°56' E 031°08'1413.7
2017-Jan-12 04:33S 30°07' E 030°60'  

Dump ship's entire track history